sensor_id;sensor_type;location;lat;lon;timestamp;P1;durP1;ratioP1;P2;durP2;ratioP2
53267;SDS011;39156;51.176;6.738;2022-07-23T00:00:53;33.10;;;30.70;;
53267;SDS011;39156;51.176;6.738;2022-07-23T00:03:19;32.80;;;30.53;;
53267;SDS011;39156;51.176;6.738;2022-07-23T00:05:44;33.07;;;30.67;;
53267;SDS011;39156;51.176;6.738;2022-07-23T00:08:10;30.50;;;28.40;;
53267;SDS011;39156;51.176;6.738;2022-07-23T00:10:36;36.03;;;33.10;;
53267;SDS011;39156;51.176;6.738;2022-07-23T00:13:02;33.13;;;30.73;;
53267;SDS011;39156;51.176;6.738;2022-07-23T00:15:28;30.90;;;28.70;;
53267;SDS011;39156;51.176;6.738;2022-07-23T00:17:54;30.00;;;27.80;;
53267;SDS011;39156;51.176;6.738;2022-07-23T00:20:20;32.30;;;30.07;;
53267;SDS011;39156;51.176;6.738;2022-07-23T00:22:49;30.07;;;27.97;;
53267;SDS011;39156;51.176;6.738;2022-07-23T00:25:17;30.10;;;27.85;;
53267;SDS011;39156;51.176;6.738;2022-07-23T00:27:44;29.95;;;27.70;;
53267;SDS011;39156;51.176;6.738;2022-07-23T00:30:10;30.97;;;28.57;;
53267;SDS011;39156;51.176;6.738;2022-07-23T00:32:47;31.77;;;29.52;;
53267;SDS011;39156;51.176;6.738;2022-07-23T00:35:19;31.15;;;28.88;;
53267;SDS011;39156;51.176;6.738;2022-07-23T00:37:46;31.23;;;29.10;;
53267;SDS011;39156;51.176;6.738;2022-07-23T00:40:12;32.50;;;30.00;;
53267;SDS011;39156;51.176;6.738;2022-07-23T00:42:38;33.63;;;30.98;;
53267;SDS011;39156;51.176;6.738;2022-07-23T00:45:05;31.33;;;29.08;;
53267;SDS011;39156;51.176;6.738;2022-07-23T00:47:32;32.03;;;29.75;;
53267;SDS011;39156;51.176;6.738;2022-07-23T00:49:58;33.15;;;30.38;;
53267;SDS011;39156;51.176;6.738;2022-07-23T00:52:24;31.93;;;29.63;;
53267;SDS011;39156;51.176;6.738;2022-07-23T00:54:50;33.22;;;30.88;;
53267;SDS011;39156;51.176;6.738;2022-07-23T00:57:16;32.42;;;29.92;;
53267;SDS011;39156;51.176;6.738;2022-07-23T00:59:42;31.10;;;28.90;;
53267;SDS011;39156;51.176;6.738;2022-07-23T01:02:08;33.93;;;31.50;;
53267;SDS011;39156;51.176;6.738;2022-07-23T01:04:34;34.15;;;31.60;;
53267;SDS011;39156;51.176;6.738;2022-07-23T01:07:00;32.60;;;30.33;;
53267;SDS011;39156;51.176;6.738;2022-07-23T01:09:27;34.17;;;31.77;;
53267;SDS011;39156;51.176;6.738;2022-07-23T01:11:54;33.03;;;30.83;;
53267;SDS011;39156;51.176;6.738;2022-07-23T01:14:20;32.08;;;29.60;;
53267;SDS011;39156;51.176;6.738;2022-07-23T01:16:47;32.00;;;29.70;;
53267;SDS011;39156;51.176;6.738;2022-07-23T01:19:14;33.20;;;30.75;;
53267;SDS011;39156;51.176;6.738;2022-07-23T01:21:42;32.65;;;30.35;;
53267;SDS011;39156;51.176;6.738;2022-07-23T01:24:11;31.38;;;28.90;;
53267;SDS011;39156;51.176;6.738;2022-07-23T01:26:40;32.60;;;30.20;;
53267;SDS011;39156;51.176;6.738;2022-07-23T01:29:10;32.72;;;30.52;;
53267;SDS011;39156;51.176;6.738;2022-07-23T01:31:37;32.67;;;30.48;;
53267;SDS011;39156;51.176;6.738;2022-07-23T01:34:03;33.50;;;31.23;;
53267;SDS011;39156;51.176;6.738;2022-07-23T01:36:29;32.42;;;30.10;;
53267;SDS011;39156;51.176;6.738;2022-07-23T01:38:55;32.37;;;30.07;;
53267;SDS011;39156;51.176;6.738;2022-07-23T01:41:21;33.47;;;30.70;;
53267;SDS011;39156;51.176;6.738;2022-07-23T01:43:46;32.90;;;30.40;;
53267;SDS011;39156;51.176;6.738;2022-07-23T01:46:12;34.67;;;32.17;;
53267;SDS011;39156;51.176;6.738;2022-07-23T01:48:39;33.88;;;31.48;;
53267;SDS011;39156;51.176;6.738;2022-07-23T01:51:05;32.87;;;30.37;;
53267;SDS011;39156;51.176;6.738;2022-07-23T01:53:30;33.13;;;30.80;;
53267;SDS011;39156;51.176;6.738;2022-07-23T01:55:57;32.13;;;29.97;;
53267;SDS011;39156;51.176;6.738;2022-07-23T01:58:24;32.53;;;30.13;;
53267;SDS011;39156;51.176;6.738;2022-07-23T02:00:51;32.30;;;29.88;;
53267;SDS011;39156;51.176;6.738;2022-07-23T02:03:17;32.05;;;29.83;;
53267;SDS011;39156;51.176;6.738;2022-07-23T02:05:43;34.70;;;32.30;;
53267;SDS011;39156;51.176;6.738;2022-07-23T02:08:08;33.77;;;31.37;;
53267;SDS011;39156;51.176;6.738;2022-07-23T02:10:34;33.07;;;30.77;;
53267;SDS011;39156;51.176;6.738;2022-07-23T02:13:00;33.73;;;31.43;;
53267;SDS011;39156;51.176;6.738;2022-07-23T02:15:25;32.53;;;30.33;;
53267;SDS011;39156;51.176;6.738;2022-07-23T02:17:51;33.13;;;30.73;;
53267;SDS011;39156;51.176;6.738;2022-07-23T02:20:17;32.33;;;29.73;;
53267;SDS011;39156;51.176;6.738;2022-07-23T02:22:43;31.27;;;29.05;;
53267;SDS011;39156;51.176;6.738;2022-07-23T02:25:09;33.63;;;31.13;;
53267;SDS011;39156;51.176;6.738;2022-07-23T02:27:35;31.37;;;28.67;;
53267;SDS011;39156;51.176;6.738;2022-07-23T02:32:28;30.77;;;28.38;;
53267;SDS011;39156;51.176;6.738;2022-07-23T02:34:53;32.00;;;29.80;;
53267;SDS011;39156;51.176;6.738;2022-07-23T02:37:19;31.83;;;29.60;;
53267;SDS011;39156;51.176;6.738;2022-07-23T02:39:45;32.90;;;30.40;;
53267;SDS011;39156;51.176;6.738;2022-07-23T02:42:10;35.07;;;32.50;;
53267;SDS011;39156;51.176;6.738;2022-07-23T02:44:36;34.20;;;31.57;;
53267;SDS011;39156;51.176;6.738;2022-07-23T02:47:02;33.63;;;31.03;;
53267;SDS011;39156;51.176;6.738;2022-07-23T02:49:28;32.97;;;30.60;;
53267;SDS011;39156;51.176;6.738;2022-07-23T02:51:53;33.60;;;31.10;;
53267;SDS011;39156;51.176;6.738;2022-07-23T02:54:19;34.03;;;31.53;;
53267;SDS011;39156;51.176;6.738;2022-07-23T02:56:45;32.83;;;30.43;;
53267;SDS011;39156;51.176;6.738;2022-07-23T02:59:10;31.20;;;28.80;;
53267;SDS011;39156;51.176;6.738;2022-07-23T03:01:36;33.33;;;30.97;;
53267;SDS011;39156;51.176;6.738;2022-07-23T03:04:02;33.93;;;31.07;;
53267;SDS011;39156;51.176;6.738;2022-07-23T03:06:28;33.07;;;30.47;;
53267;SDS011;39156;51.176;6.738;2022-07-23T03:08:54;33.03;;;30.67;;
53267;SDS011;39156;51.176;6.738;2022-07-23T03:11:19;31.93;;;29.53;;
53267;SDS011;39156;51.176;6.738;2022-07-23T03:13:45;34.47;;;32.08;;
53267;SDS011;39156;51.176;6.738;2022-07-23T03:16:11;31.90;;;29.50;;
53267;SDS011;39156;51.176;6.738;2022-07-23T03:18:37;31.10;;;28.50;;
53267;SDS011;39156;51.176;6.738;2022-07-23T03:21:03;32.20;;;29.90;;
53267;SDS011;39156;51.176;6.738;2022-07-23T03:23:28;31.87;;;29.53;;
53267;SDS011;39156;51.176;6.738;2022-07-23T03:25:54;32.63;;;30.13;;
53267;SDS011;39156;51.176;6.738;2022-07-23T03:28:20;31.87;;;29.47;;
53267;SDS011;39156;51.176;6.738;2022-07-23T03:30:46;32.50;;;30.30;;
53267;SDS011;39156;51.176;6.738;2022-07-23T03:33:13;30.92;;;28.80;;
53267;SDS011;39156;51.176;6.738;2022-07-23T03:35:41;30.75;;;28.63;;
53267;SDS011;39156;51.176;6.738;2022-07-23T03:38:08;29.85;;;27.80;;
53267;SDS011;39156;51.176;6.738;2022-07-23T03:40:34;30.25;;;28.23;;
53267;SDS011;39156;51.176;6.738;2022-07-23T03:42:59;31.00;;;28.90;;
53267;SDS011;39156;51.176;6.738;2022-07-23T03:45:25;30.47;;;28.37;;
53267;SDS011;39156;51.176;6.738;2022-07-23T03:47:51;29.47;;;27.47;;
53267;SDS011;39156;51.176;6.738;2022-07-23T03:50:17;30.53;;;28.33;;
53267;SDS011;39156;51.176;6.738;2022-07-23T03:52:43;31.80;;;29.60;;
53267;SDS011;39156;51.176;6.738;2022-07-23T03:55:08;32.43;;;29.93;;
53267;SDS011;39156;51.176;6.738;2022-07-23T03:57:34;32.20;;;29.77;;
53267;SDS011;39156;51.176;6.738;2022-07-23T04:00:00;29.87;;;27.77;;
53267;SDS011;39156;51.176;6.738;2022-07-23T04:02:27;30.80;;;28.48;;
53267;SDS011;39156;51.176;6.738;2022-07-23T04:04:53;29.47;;;27.57;;
53267;SDS011;39156;51.176;6.738;2022-07-23T04:07:18;29.90;;;27.92;;
53267;SDS011;39156;51.176;6.738;2022-07-23T04:09:44;29.80;;;27.63;;
53267;SDS011;39156;51.176;6.738;2022-07-23T04:12:10;30.33;;;28.35;;
53267;SDS011;39156;51.176;6.738;2022-07-23T04:14:36;30.70;;;28.70;;
53267;SDS011;39156;51.176;6.738;2022-07-23T04:17:02;32.00;;;29.53;;
53267;SDS011;39156;51.176;6.738;2022-07-23T04:19:28;30.00;;;28.08;;
53267;SDS011;39156;51.176;6.738;2022-07-23T04:21:55;27.85;;;26.05;;
53267;SDS011;39156;51.176;6.738;2022-07-23T04:24:22;27.60;;;25.90;;
53267;SDS011;39156;51.176;6.738;2022-07-23T04:26:47;27.70;;;25.90;;
53267;SDS011;39156;51.176;6.738;2022-07-23T04:29:13;30.43;;;28.27;;
53267;SDS011;39156;51.176;6.738;2022-07-23T04:31:39;29.63;;;27.73;;
53267;SDS011;39156;51.176;6.738;2022-07-23T04:34:04;30.47;;;28.33;;
53267;SDS011;39156;51.176;6.738;2022-07-23T04:36:30;30.97;;;28.73;;
53267;SDS011;39156;51.176;6.738;2022-07-23T04:38:56;29.27;;;27.00;;
53267;SDS011;39156;51.176;6.738;2022-07-23T04:41:21;29.77;;;27.73;;
53267;SDS011;39156;51.176;6.738;2022-07-23T04:43:47;30.57;;;28.23;;
53267;SDS011;39156;51.176;6.738;2022-07-23T04:46:13;30.63;;;28.03;;
53267;SDS011;39156;51.176;6.738;2022-07-23T04:48:39;28.50;;;26.40;;
53267;SDS011;39156;51.176;6.738;2022-07-23T04:51:04;28.67;;;26.67;;
53267;SDS011;39156;51.176;6.738;2022-07-23T04:53:31;27.35;;;25.38;;
53267;SDS011;39156;51.176;6.738;2022-07-23T04:55:56;31.00;;;28.20;;
53267;SDS011;39156;51.176;6.738;2022-07-23T04:58:22;29.20;;;26.93;;
53267;SDS011;39156;51.176;6.738;2022-07-23T05:00:48;29.17;;;26.07;;
53267;SDS011;39156;51.176;6.738;2022-07-23T05:03:14;29.35;;;27.20;;
53267;SDS011;39156;51.176;6.738;2022-07-23T05:05:40;27.23;;;25.00;;
53267;SDS011;39156;51.176;6.738;2022-07-23T05:08:05;28.43;;;26.43;;
53267;SDS011;39156;51.176;6.738;2022-07-23T05:10:31;30.03;;;27.83;;
53267;SDS011;39156;51.176;6.738;2022-07-23T05:12:57;28.25;;;26.30;;
53267;SDS011;39156;51.176;6.738;2022-07-23T05:15:23;25.53;;;23.73;;
53267;SDS011;39156;51.176;6.738;2022-07-23T05:17:49;25.50;;;23.65;;
53267;SDS011;39156;51.176;6.738;2022-07-23T05:20:15;26.83;;;24.90;;
53267;SDS011;39156;51.176;6.738;2022-07-23T05:22:41;25.20;;;23.37;;
53267;SDS011;39156;51.176;6.738;2022-07-23T05:25:06;24.65;;;23.00;;
53267;SDS011;39156;51.176;6.738;2022-07-23T05:27:33;23.73;;;22.00;;
53267;SDS011;39156;51.176;6.738;2022-07-23T05:29:59;25.38;;;23.45;;
53267;SDS011;39156;51.176;6.738;2022-07-23T05:32:24;25.50;;;23.60;;
53267;SDS011;39156;51.176;6.738;2022-07-23T05:34:50;22.45;;;20.95;;
53267;SDS011;39156;51.176;6.738;2022-07-23T05:37:16;24.02;;;22.52;;
53267;SDS011;39156;51.176;6.738;2022-07-23T05:39:42;22.58;;;20.98;;
53267;SDS011;39156;51.176;6.738;2022-07-23T05:42:07;23.30;;;21.50;;
53267;SDS011;39156;51.176;6.738;2022-07-23T05:44:33;25.17;;;23.25;;
53267;SDS011;39156;51.176;6.738;2022-07-23T05:46:59;23.00;;;21.27;;
53267;SDS011;39156;51.176;6.738;2022-07-23T05:49:25;21.17;;;19.42;;
53267;SDS011;39156;51.176;6.738;2022-07-23T05:51:51;22.45;;;20.65;;
53267;SDS011;39156;51.176;6.738;2022-07-23T05:54:16;22.08;;;20.60;;
53267;SDS011;39156;51.176;6.738;2022-07-23T05:56:42;22.20;;;20.70;;
53267;SDS011;39156;51.176;6.738;2022-07-23T05:59:08;23.08;;;21.48;;
53267;SDS011;39156;51.176;6.738;2022-07-23T06:01:34;22.80;;;21.20;;
53267;SDS011;39156;51.176;6.738;2022-07-23T06:03:59;22.80;;;21.20;;
53267;SDS011;39156;51.176;6.738;2022-07-23T06:06:25;23.23;;;21.42;;
53267;SDS011;39156;51.176;6.738;2022-07-23T06:08:51;21.98;;;20.48;;
53267;SDS011;39156;51.176;6.738;2022-07-23T06:11:17;22.08;;;20.48;;
53267;SDS011;39156;51.176;6.738;2022-07-23T06:13:42;22.70;;;20.80;;
53267;SDS011;39156;51.176;6.738;2022-07-23T06:16:08;21.85;;;20.35;;
53267;SDS011;39156;51.176;6.738;2022-07-23T06:18:34;23.73;;;22.02;;
53267;SDS011;39156;51.176;6.738;2022-07-23T06:20:59;22.48;;;20.67;;
53267;SDS011;39156;51.176;6.738;2022-07-23T06:23:25;22.63;;;21.02;;
53267;SDS011;39156;51.176;6.738;2022-07-23T06:25:51;21.52;;;19.88;;
53267;SDS011;39156;51.176;6.738;2022-07-23T06:28:17;21.67;;;20.08;;
53267;SDS011;39156;51.176;6.738;2022-07-23T06:33:08;20.83;;;19.40;;
53267;SDS011;39156;51.176;6.738;2022-07-23T06:35:34;21.38;;;19.77;;
53267;SDS011;39156;51.176;6.738;2022-07-23T06:38:00;21.60;;;19.40;;
53267;SDS011;39156;51.176;6.738;2022-07-23T06:40:25;21.63;;;19.67;;
53267;SDS011;39156;51.176;6.738;2022-07-23T06:42:51;20.50;;;18.80;;
53267;SDS011;39156;51.176;6.738;2022-07-23T06:45:17;20.23;;;18.73;;
53267;SDS011;39156;51.176;6.738;2022-07-23T06:47:43;20.30;;;18.80;;
53267;SDS011;39156;51.176;6.738;2022-07-23T06:50:09;20.02;;;18.58;;
53267;SDS011;39156;51.176;6.738;2022-07-23T06:52:35;20.05;;;18.52;;
53267;SDS011;39156;51.176;6.738;2022-07-23T06:55:01;20.27;;;18.65;;
53267;SDS011;39156;51.176;6.738;2022-07-23T06:57:26;19.50;;;17.98;;
53267;SDS011;39156;51.176;6.738;2022-07-23T06:59:52;20.50;;;19.00;;
53267;SDS011;39156;51.176;6.738;2022-07-23T07:02:18;21.30;;;19.50;;
53267;SDS011;39156;51.176;6.738;2022-07-23T07:04:44;20.60;;;18.95;;
53267;SDS011;39156;51.176;6.738;2022-07-23T07:07:10;22.25;;;20.10;;
53267;SDS011;39156;51.176;6.738;2022-07-23T07:09:36;20.48;;;18.88;;
53267;SDS011;39156;51.176;6.738;2022-07-23T07:12:02;23.55;;;18.52;;
53267;SDS011;39156;51.176;6.738;2022-07-23T07:14:29;19.98;;;18.23;;
53267;SDS011;39156;51.176;6.738;2022-07-23T07:16:55;18.52;;;17.10;;
53267;SDS011;39156;51.176;6.738;2022-07-23T07:19:21;18.73;;;17.27;;
53267;SDS011;39156;51.176;6.738;2022-07-23T07:21:47;19.27;;;17.52;;
53267;SDS011;39156;51.176;6.738;2022-07-23T07:24:13;19.27;;;17.70;;
53267;SDS011;39156;51.176;6.738;2022-07-23T07:26:38;20.00;;;17.98;;
53267;SDS011;39156;51.176;6.738;2022-07-23T07:29:05;19.08;;;17.58;;
53267;SDS011;39156;51.176;6.738;2022-07-23T07:31:31;18.27;;;16.77;;
53267;SDS011;39156;51.176;6.738;2022-07-23T07:33:57;18.45;;;17.05;;
53267;SDS011;39156;51.176;6.738;2022-07-23T07:36:23;18.23;;;16.70;;
53267;SDS011;39156;51.176;6.738;2022-07-23T07:38:49;19.00;;;17.40;;
53267;SDS011;39156;51.176;6.738;2022-07-23T07:41:14;19.42;;;17.63;;
53267;SDS011;39156;51.176;6.738;2022-07-23T07:43:40;18.60;;;17.10;;
53267;SDS011;39156;51.176;6.738;2022-07-23T07:46:06;19.40;;;17.83;;
53267;SDS011;39156;51.176;6.738;2022-07-23T07:48:35;18.98;;;17.48;;
53267;SDS011;39156;51.176;6.738;2022-07-23T07:51:02;19.25;;;17.60;;
53267;SDS011;39156;51.176;6.738;2022-07-23T07:53:29;19.15;;;17.63;;
53267;SDS011;39156;51.176;6.738;2022-07-23T07:55:55;19.77;;;18.27;;
53267;SDS011;39156;51.176;6.738;2022-07-23T07:58:21;18.83;;;17.42;;
53267;SDS011;39156;51.176;6.738;2022-07-23T08:00:46;19.20;;;17.70;;
53267;SDS011;39156;51.176;6.738;2022-07-23T08:03:12;17.48;;;16.27;;
53267;SDS011;39156;51.176;6.738;2022-07-23T08:05:38;17.10;;;15.85;;
53267;SDS011;39156;51.176;6.738;2022-07-23T08:08:04;18.25;;;16.85;;
53267;SDS011;39156;51.176;6.738;2022-07-23T08:10:29;16.88;;;15.68;;
53267;SDS011;39156;51.176;6.738;2022-07-23T08:12:56;17.10;;;15.70;;
53267;SDS011;39156;51.176;6.738;2022-07-23T08:15:23;17.23;;;15.68;;
53267;SDS011;39156;51.176;6.738;2022-07-23T08:17:52;17.45;;;15.98;;
53267;SDS011;39156;51.176;6.738;2022-07-23T08:20:19;17.50;;;16.30;;
53267;SDS011;39156;51.176;6.738;2022-07-23T08:25:26;16.95;;;15.65;;
53267;SDS011;39156;51.176;6.738;2022-07-23T08:27:54;19.25;;;17.42;;
53267;SDS011;39156;51.176;6.738;2022-07-23T08:30:22;17.02;;;15.65;;
53267;SDS011;39156;51.176;6.738;2022-07-23T08:32:58;16.20;;;15.10;;
53267;SDS011;39156;51.176;6.738;2022-07-23T08:35:43;16.30;;;15.10;;
53267;SDS011;39156;51.176;6.738;2022-07-23T08:38:15;16.58;;;15.13;;
53267;SDS011;39156;51.176;6.738;2022-07-23T08:40:44;16.08;;;14.88;;
53267;SDS011;39156;51.176;6.738;2022-07-23T08:43:17;16.33;;;15.13;;
53267;SDS011;39156;51.176;6.738;2022-07-23T08:45:50;15.52;;;14.23;;
53267;SDS011;39156;51.176;6.738;2022-07-23T08:48:22;15.55;;;14.45;;
53267;SDS011;39156;51.176;6.738;2022-07-23T08:50:54;15.50;;;14.43;;
53267;SDS011;39156;51.176;6.738;2022-07-23T08:53:22;15.18;;;14.07;;
53267;SDS011;39156;51.176;6.738;2022-07-23T08:55:51;15.95;;;14.90;;
53267;SDS011;39156;51.176;6.738;2022-07-23T08:58:21;15.90;;;14.45;;
53267;SDS011;39156;51.176;6.738;2022-07-23T09:00:47;15.25;;;14.15;;
53267;SDS011;39156;51.176;6.738;2022-07-23T09:05:43;15.57;;;14.40;;
53267;SDS011;39156;51.176;6.738;2022-07-23T09:08:13;14.85;;;13.75;;
53267;SDS011;39156;51.176;6.738;2022-07-23T09:10:57;14.45;;;13.48;;
53267;SDS011;39156;51.176;6.738;2022-07-23T09:16:14;14.60;;;13.57;;
53267;SDS011;39156;51.176;6.738;2022-07-23T09:18:52;14.70;;;13.60;;
53267;SDS011;39156;51.176;6.738;2022-07-23T09:26:32;15.57;;;14.30;;
53267;SDS011;39156;51.176;6.738;2022-07-23T09:29:06;13.32;;;12.43;;
53267;SDS011;39156;51.176;6.738;2022-07-23T09:31:44;14.07;;;13.05;;
53267;SDS011;39156;51.176;6.738;2022-07-23T09:36:53;14.10;;;13.18;;
53267;SDS011;39156;51.176;6.738;2022-07-23T09:39:33;14.85;;;13.57;;
53267;SDS011;39156;51.176;6.738;2022-07-23T09:42:15;13.68;;;12.77;;
53267;SDS011;39156;51.176;6.738;2022-07-23T09:44:46;13.82;;;12.88;;
53267;SDS011;39156;51.176;6.738;2022-07-23T09:47:14;13.82;;;12.73;;
53267;SDS011;39156;51.176;6.738;2022-07-23T09:49:40;14.13;;;13.02;;
53267;SDS011;39156;51.176;6.738;2022-07-23T09:52:43;14.20;;;13.20;;
53267;SDS011;39156;51.176;6.738;2022-07-23T09:55:14;15.00;;;13.75;;
53267;SDS011;39156;51.176;6.738;2022-07-23T09:57:45;14.55;;;13.70;;
53267;SDS011;39156;51.176;6.738;2022-07-23T10:00:15;14.27;;;13.27;;
53267;SDS011;39156;51.176;6.738;2022-07-23T10:02:41;14.88;;;13.70;;
53267;SDS011;39156;51.176;6.738;2022-07-23T10:05:07;13.93;;;13.07;;
53267;SDS011;39156;51.176;6.738;2022-07-23T10:07:34;14.60;;;13.40;;
53267;SDS011;39156;51.176;6.738;2022-07-23T10:10:05;14.43;;;13.57;;
53267;SDS011;39156;51.176;6.738;2022-07-23T10:12:31;14.32;;;13.23;;
53267;SDS011;39156;51.176;6.738;2022-07-23T10:15:06;14.40;;;13.20;;
53267;SDS011;39156;51.176;6.738;2022-07-23T10:17:33;14.80;;;13.75;;
53267;SDS011;39156;51.176;6.738;2022-07-23T10:19:59;14.27;;;13.45;;
53267;SDS011;39156;51.176;6.738;2022-07-23T10:22:29;14.60;;;13.65;;
53267;SDS011;39156;51.176;6.738;2022-07-23T10:27:58;15.57;;;14.57;;
53267;SDS011;39156;51.176;6.738;2022-07-23T10:30:56;15.30;;;14.40;;
53267;SDS011;39156;51.176;6.738;2022-07-23T10:39:15;16.30;;;15.40;;
53267;SDS011;39156;51.176;6.738;2022-07-23T10:42:14;17.08;;;15.95;;
53267;SDS011;39156;51.176;6.738;2022-07-23T10:44:42;17.42;;;16.33;;
53267;SDS011;39156;51.176;6.738;2022-07-23T10:47:11;16.90;;;15.90;;
53267;SDS011;39156;51.176;6.738;2022-07-23T10:50:16;17.65;;;16.45;;
53267;SDS011;39156;51.176;6.738;2022-07-23T10:55:47;17.23;;;16.10;;
53267;SDS011;39156;51.176;6.738;2022-07-23T10:58:20;17.42;;;16.23;;
53267;SDS011;39156;51.176;6.738;2022-07-23T11:00:48;17.45;;;16.35;;
53267;SDS011;39156;51.176;6.738;2022-07-23T11:05:54;17.77;;;16.58;;
53267;SDS011;39156;51.176;6.738;2022-07-23T11:08:20;17.80;;;16.70;;
53267;SDS011;39156;51.176;6.738;2022-07-23T11:10:50;18.67;;;17.58;;
53267;SDS011;39156;51.176;6.738;2022-07-23T11:13:41;18.55;;;17.45;;
53267;SDS011;39156;51.176;6.738;2022-07-23T11:32:00;18.15;;;16.90;;
53267;SDS011;39156;51.176;6.738;2022-07-23T11:36:56;18.80;;;17.70;;
53267;SDS011;39156;51.176;6.738;2022-07-23T11:39:24;17.95;;;16.80;;
53267;SDS011;39156;51.176;6.738;2022-07-23T11:41:52;18.77;;;17.58;;
53267;SDS011;39156;51.176;6.738;2022-07-23T11:44:25;17.73;;;16.52;;
53267;SDS011;39156;51.176;6.738;2022-07-23T11:47:00;18.15;;;17.15;;
53267;SDS011;39156;51.176;6.738;2022-07-23T11:49:37;19.63;;;18.42;;
53267;SDS011;39156;51.176;6.738;2022-07-23T11:52:07;17.67;;;16.58;;
53267;SDS011;39156;51.176;6.738;2022-07-23T11:57:20;18.20;;;17.20;;
53267;SDS011;39156;51.176;6.738;2022-07-23T11:59:57;17.88;;;16.77;;
53267;SDS011;39156;51.176;6.738;2022-07-23T12:02:35;18.60;;;17.25;;
53267;SDS011;39156;51.176;6.738;2022-07-23T12:05:16;18.42;;;17.30;;
53267;SDS011;39156;51.176;6.738;2022-07-23T12:07:50;17.48;;;16.35;;
53267;SDS011;39156;51.176;6.738;2022-07-23T12:10:21;17.95;;;16.83;;
53267;SDS011;39156;51.176;6.738;2022-07-23T12:12:58;18.17;;;17.10;;
53267;SDS011;39156;51.176;6.738;2022-07-23T12:15:27;17.15;;;16.15;;
53267;SDS011;39156;51.176;6.738;2022-07-23T12:17:56;17.85;;;16.77;;
53267;SDS011;39156;51.176;6.738;2022-07-23T12:20:24;18.02;;;17.02;;
53267;SDS011;39156;51.176;6.738;2022-07-23T12:22:57;17.52;;;16.52;;
53267;SDS011;39156;51.176;6.738;2022-07-23T12:25:26;17.23;;;16.23;;
53267;SDS011;39156;51.176;6.738;2022-07-23T12:28:37;18.08;;;17.08;;
53267;SDS011;39156;51.176;6.738;2022-07-23T12:30:54;18.85;;;17.65;;
53267;SDS011;39156;51.176;6.738;2022-07-23T12:33:26;18.05;;;16.85;;
53267;SDS011;39156;51.176;6.738;2022-07-23T12:38:37;17.58;;;16.58;;
53267;SDS011;39156;51.176;6.738;2022-07-23T12:41:09;17.52;;;16.42;;
53267;SDS011;39156;51.176;6.738;2022-07-23T12:43:42;16.50;;;15.60;;
53267;SDS011;39156;51.176;6.738;2022-07-23T12:46:14;18.27;;;17.08;;
53267;SDS011;39156;51.176;6.738;2022-07-23T12:51:23;18.15;;;16.70;;
53267;SDS011;39156;51.176;6.738;2022-07-23T12:53:54;17.20;;;16.27;;
53267;SDS011;39156;51.176;6.738;2022-07-23T12:56:30;19.15;;;17.95;;
53267;SDS011;39156;51.176;6.738;2022-07-23T12:59:01;17.35;;;16.35;;
53267;SDS011;39156;51.176;6.738;2022-07-23T13:01:32;17.30;;;16.40;;
53267;SDS011;39156;51.176;6.738;2022-07-23T13:04:02;18.45;;;16.83;;
53267;SDS011;39156;51.176;6.738;2022-07-23T13:06:35;17.65;;;16.65;;
53267;SDS011;39156;51.176;6.738;2022-07-23T13:09:05;17.88;;;16.75;;
53267;SDS011;39156;51.176;6.738;2022-07-23T13:11:33;17.08;;;16.08;;
53267;SDS011;39156;51.176;6.738;2022-07-23T13:16:26;16.80;;;15.80;;
53267;SDS011;39156;51.176;6.738;2022-07-23T13:18:53;16.88;;;15.98;;
53267;SDS011;39156;51.176;6.738;2022-07-23T13:21:18;17.08;;;16.08;;
53267;SDS011;39156;51.176;6.738;2022-07-23T13:23:44;17.33;;;16.23;;
53267;SDS011;39156;51.176;6.738;2022-07-23T13:26:10;18.75;;;17.75;;
53267;SDS011;39156;51.176;6.738;2022-07-23T13:28:36;17.38;;;16.27;;
53267;SDS011;39156;51.176;6.738;2022-07-23T13:31:01;17.00;;;16.10;;
53267;SDS011;39156;51.176;6.738;2022-07-23T13:33:27;17.20;;;16.20;;
53267;SDS011;39156;51.176;6.738;2022-07-23T13:35:53;17.85;;;16.73;;
53267;SDS011;39156;51.176;6.738;2022-07-23T13:38:19;18.00;;;16.85;;
53267;SDS011;39156;51.176;6.738;2022-07-23T13:40:46;17.98;;;16.98;;
53267;SDS011;39156;51.176;6.738;2022-07-23T13:43:15;17.95;;;16.95;;
53267;SDS011;39156;51.176;6.738;2022-07-23T13:45:43;16.67;;;15.48;;
53267;SDS011;39156;51.176;6.738;2022-07-23T13:48:11;17.00;;;16.00;;
53267;SDS011;39156;51.176;6.738;2022-07-23T13:50:38;17.02;;;16.02;;
53267;SDS011;39156;51.176;6.738;2022-07-23T13:53:06;18.13;;;17.13;;
53267;SDS011;39156;51.176;6.738;2022-07-23T13:55:34;18.00;;;16.90;;
53267;SDS011;39156;51.176;6.738;2022-07-23T13:58:01;17.92;;;16.95;;
53267;SDS011;39156;51.176;6.738;2022-07-23T14:00:28;16.85;;;15.95;;
53267;SDS011;39156;51.176;6.738;2022-07-23T14:02:55;16.85;;;15.85;;
53267;SDS011;39156;51.176;6.738;2022-07-23T14:05:22;17.98;;;16.77;;
53267;SDS011;39156;51.176;6.738;2022-07-23T14:07:47;18.10;;;17.10;;
53267;SDS011;39156;51.176;6.738;2022-07-23T14:10:15;17.63;;;16.52;;
53267;SDS011;39156;51.176;6.738;2022-07-23T14:12:43;17.50;;;16.50;;
53267;SDS011;39156;51.176;6.738;2022-07-23T14:15:09;17.45;;;16.13;;
53267;SDS011;39156;51.176;6.738;2022-07-23T14:17:39;16.48;;;15.57;;
53267;SDS011;39156;51.176;6.738;2022-07-23T14:20:08;17.88;;;16.77;;
53267;SDS011;39156;51.176;6.738;2022-07-23T14:22:35;18.13;;;16.75;;
53267;SDS011;39156;51.176;6.738;2022-07-23T14:27:28;17.15;;;16.25;;
53267;SDS011;39156;51.176;6.738;2022-07-23T14:29:54;16.95;;;16.05;;
53267;SDS011;39156;51.176;6.738;2022-07-23T14:32:20;17.38;;;16.35;;
53267;SDS011;39156;51.176;6.738;2022-07-23T14:34:47;17.63;;;16.63;;
53267;SDS011;39156;51.176;6.738;2022-07-23T14:37:13;16.85;;;15.75;;
53267;SDS011;39156;51.176;6.738;2022-07-23T14:39:40;17.92;;;16.63;;
53267;SDS011;39156;51.176;6.738;2022-07-23T14:42:07;17.25;;;16.15;;
53267;SDS011;39156;51.176;6.738;2022-07-23T14:44:34;17.38;;;16.27;;
53267;SDS011;39156;51.176;6.738;2022-07-23T14:47:02;16.83;;;15.82;;
53267;SDS011;39156;51.176;6.738;2022-07-23T14:49:30;18.30;;;17.10;;
53267;SDS011;39156;51.176;6.738;2022-07-23T14:51:57;17.40;;;16.40;;
53267;SDS011;39156;51.176;6.738;2022-07-23T14:54:24;17.80;;;16.40;;
53267;SDS011;39156;51.176;6.738;2022-07-23T14:56:52;18.33;;;17.13;;
53267;SDS011;39156;51.176;6.738;2022-07-23T14:59:21;18.55;;;17.45;;
53267;SDS011;39156;51.176;6.738;2022-07-23T15:01:48;18.25;;;17.20;;
53267;SDS011;39156;51.176;6.738;2022-07-23T15:04:14;18.98;;;17.88;;
53267;SDS011;39156;51.176;6.738;2022-07-23T15:06:40;17.67;;;16.67;;
53267;SDS011;39156;51.176;6.738;2022-07-23T15:09:06;17.33;;;16.23;;
53267;SDS011;39156;51.176;6.738;2022-07-23T15:11:32;17.65;;;16.40;;
53267;SDS011;39156;51.176;6.738;2022-07-23T15:14:02;18.70;;;17.58;;
53267;SDS011;39156;51.176;6.738;2022-07-23T15:16:29;17.92;;;16.92;;
53267;SDS011;39156;51.176;6.738;2022-07-23T15:18:55;17.83;;;16.73;;
53267;SDS011;39156;51.176;6.738;2022-07-23T15:21:21;17.30;;;16.20;;
53267;SDS011;39156;51.176;6.738;2022-07-23T15:23:47;18.58;;;17.48;;
53267;SDS011;39156;51.176;6.738;2022-07-23T15:26:13;17.75;;;16.75;;
53267;SDS011;39156;51.176;6.738;2022-07-23T15:28:40;17.13;;;16.13;;
53267;SDS011;39156;51.176;6.738;2022-07-23T15:31:06;18.50;;;17.45;;